Time;durP1;ratioP1;P1;durP2;ratioP2;P2;SDS_P1;SDS_P2;PMS_P1;PMS_P2;Temp;Humidity;BMP_temperature;BMP_pressure;BME280_temperature;BME280_humidity;BME280_pressure;Samples;Min_cycle;Max_cycle;Signal;HPM_P1;HPM_P2
2021/06/09 00:01:36;;;;;;;13.10;9.15;;;;;;;17.52;67.32;99706.56;5094514;28;20040;-63
2021/06/09 00:04:08;;;;;;;12.63;8.60;;;;;;;17.53;67.25;99695.34;5094317;28;20078;-64
2021/06/09 00:06:40;;;;;;;11.52;8.98;;;;;;;17.55;67.49;99696.16;5094371;28;20044;-64
2021/06/09 00:09:12;;;;;;;11.95;8.52;;;;;;;17.52;67.11;99702.25;5094423;28;20056;-64
2021/06/09 00:11:44;;;;;;;12.68;9.07;;;;;;;17.49;67.33;99698.88;5094335;28;20060;-65
2021/06/09 00:14:18;;;;;;;12.35;9.38;;;;;;;17.46;67.23;99696.38;5094266;28;20134;-64
2021/06/09 00:16:51;;;;;;;11.25;8.73;;;;;;;17.46;67.05;99701.56;5094326;28;20074;-64
2021/06/09 00:19:25;;;;;;;12.40;9.15;;;;;;;17.36;67.30;99699.22;5094259;28;20051;-63
2021/06/09 00:21:56;;;;;;;11.68;8.48;;;;;;;17.38;67.28;99696.59;5094015;28;20051;-63
2021/06/09 00:24:28;;;;;;;12.43;9.13;;;;;;;17.35;67.52;99697.53;5094111;28;20536;-64
2021/06/09 00:27:18;;;;;;;11.60;8.52;;;;;;;17.38;67.08;99694.88;5093891;28;20101;-64
2021/06/09 00:29:50;;;;;;;12.18;9.35;;;;;;;17.35;66.99;99696.69;5094430;28;20055;-65
2021/06/09 00:32:24;;;;;;;11.10;8.82;;;;;;;17.24;67.40;99691.84;5094023;28;20055;-64
2021/06/09 00:35:06;;;;;;;12.35;8.65;;;;;;;17.15;67.81;99689.50;5093781;28;20062;-65
2021/06/09 00:37:38;;;;;;;14.75;9.68;;;;;;;17.08;67.73;99690.56;5094318;28;20113;-64
2021/06/09 00:40:11;;;;;;;11.55;8.23;;;;;;;17.15;68.10;99694.66;5093955;28;20122;-64
2021/06/09 00:43:07;;;;;;;12.32;8.02;;;;;;;17.16;67.78;99688.59;5093975;28;20064;-64
2021/06/09 00:45:41;;;;;;;12.32;8.88;;;;;;;17.21;67.53;99691.91;5093744;28;20502;-64
2021/06/09 00:48:15;;;;;;;11.50;8.60;;;;;;;17.27;67.27;99694.34;5093884;28;20487;-64
2021/06/09 00:50:48;;;;;;;11.57;8.20;;;;;;;17.28;67.16;99695.16;5093860;28;20063;-65
2021/06/09 00:56:06;;;;;;;11.73;8.40;;;;;;;17.38;66.74;99689.72;5093836;28;20058;-64
2021/06/09 00:58:39;;;;;;;12.88;9.27;;;;;;;17.38;66.98;99686.28;5002933;28;20064;-63
2021/06/09 01:01:12;;;;;;;12.02;8.57;;;;;;;17.29;66.81;99677.06;5093559;28;20068;-63
2021/06/09 01:03:42;;;;;;;13.10;9.07;;;;;;;17.35;67.05;99682.03;5093674;28;20501;-63
2021/06/09 01:06:14;;;;;;;15.75;9.43;;;;;;;17.46;67.11;99686.06;5095957;28;20048;-64
2021/06/09 01:08:43;;;;;;;15.05;9.90;;;;;;;17.51;66.59;99681.63;5097802;28;20425;-65
2021/06/09 01:11:18;;;;;;;14.57;9.70;;;;;;;17.52;66.58;99680.75;5097719;28;20048;-64
2021/06/09 01:13:48;;;;;;;12.85;9.45;;;;;;;17.38;67.04;99679.38;5097655;28;20048;-65
2021/06/09 01:16:19;;;;;;;;;;;;;;;17.35;67.50;99684.63;5098050;28;20052;-64
2021/06/09 01:18:50;;;;;;;13.13;9.15;;;;;;;17.39;67.24;99690.56;5097683;28;19924;-64
2021/06/09 01:21:27;;;;;;;12.40;9.65;;;;;;;17.30;67.52;99685.63;5097611;28;20048;-63
2021/06/09 01:24:00;;;;;;;12.15;8.85;;;;;;;17.26;67.53;99684.88;5097562;28;20050;-63
2021/06/09 01:26:34;;;;;;;11.48;8.80;;;;;;;17.12;67.97;99681.84;5097227;28;20063;-64
2021/06/09 01:29:07;;;;;;;12.45;8.63;;;;;;;17.17;67.93;99685.16;5097809;28;20052;-63
2021/06/09 01:31:39;;;;;;;12.30;9.18;;;;;;;17.21;68.17;99686.75;5097493;28;20434;-63
2021/06/09 01:34:12;;;;;;;14.02;9.40;;;;;;;17.27;67.61;99681.44;5097709;28;20051;-63
2021/06/09 01:36:46;;;;;;;12.25;9.05;;;;;;;17.30;67.55;99677.88;5097296;28;20044;-64
2021/06/09 01:39:17;;;;;;;11.13;9.23;;;;;;;17.25;67.52;99685.75;5097292;28;20056;-64
2021/06/09 01:41:49;;;;;;;12.90;9.27;;;;;;;17.28;67.71;99688.28;5097251;28;20067;-65
2021/06/09 01:44:22;;;;;;;11.63;8.88;;;;;;;17.29;67.51;99687.41;5097232;28;20400;-64
2021/06/09 01:46:54;;;;;;;12.00;8.98;;;;;;;17.26;67.56;99684.88;5097297;28;20044;-63
2021/06/09 01:49:26;;;;;;;10.68;8.63;;;;;;;17.23;67.15;99684.97;5097382;28;20075;-63
2021/06/09 01:52:00;;;;;;;13.07;8.77;;;;;;;17.17;67.66;99687.72;5096997;28;20493;-63
2021/06/09 01:54:36;;;;;;;11.77;8.82;;;;;;;17.19;67.35;99678.22;5097105;28;20059;-63
2021/06/09 01:57:08;;;;;;;14.07;9.25;;;;;;;17.10;67.44;99687.94;5096039;28;20063;-63
2021/06/09 01:59:42;;;;;;;11.82;8.43;;;;;;;17.11;67.63;99685.31;5096895;28;20102;-62
2021/06/09 02:02:14;;;;;;;13.43;9.18;;;;;;;17.06;67.41;99671.69;5096820;28;20040;-63
2021/06/09 02:04:46;;;;;;;12.15;8.68;;;;;;;17.09;67.68;99691.38;5096840;28;20413;-63
2021/06/09 02:07:19;;;;;;;12.35;8.75;;;;;;;17.09;67.41;99687.06;5096322;28;20054;-64
2021/06/09 02:09:52;;;;;;;12.07;9.00;;;;;;;16.99;67.87;99685.63;5096445;28;20071;-63
2021/06/09 02:12:24;;;;;;;11.43;8.52;;;;;;;17.06;67.96;99694.91;5096636;28;20059;-64
2021/06/09 02:14:57;;;;;;;12.57;8.93;;;;;;;17.02;67.90;99695.88;5096391;28;20040;-64
2021/06/09 02:17:29;;;;;;;11.73;9.05;;;;;;;16.99;68.07;99688.22;5095963;28;20067;-64
2021/06/09 02:20:01;;;;;;;13.05;9.32;;;;;;;16.91;68.09;99687.59;5096720;28;20044;-63
2021/06/09 02:22:36;;;;;;;14.20;9.48;;;;;;;16.68;68.28;99682.16;5096439;28;20052;-63
2021/06/09 02:25:09;;;;;;;13.15;9.45;;;;;;;16.53;69.03;99685.13;5096394;28;20126;-63
2021/06/09 02:27:41;;;;;;;13.15;9.77;;;;;;;16.48;68.91;99681.78;5096561;28;20052;-63
2021/06/09 02:30:15;;;;;;;12.10;9.38;;;;;;;16.44;69.27;99685.31;5096295;28;20056;-63
2021/06/09 02:32:48;;;;;;;13.07;8.90;;;;;;;16.45;69.78;99687.00;5096262;28;20048;-64
2021/06/09 02:35:21;;;;;;;13.68;9.02;;;;;;;16.32;69.69;99680.44;5096210;28;20568;-63
2021/06/09 02:37:55;;;;;;;12.32;8.95;;;;;;;16.30;70.52;99689.94;5096060;28;20509;-64
2021/06/09 02:40:27;;;;;;;13.55;9.13;;;;;;;16.34;70.53;99691.59;5096099;28;20063;-63
2021/06/09 02:42:59;;;;;;;13.60;8.88;;;;;;;16.40;70.42;99686.28;5096556;28;20082;-63
2021/06/09 02:45:31;;;;;;;13.23;8.65;;;;;;;16.43;69.79;99688.78;5095939;28;20493;-64
2021/06/09 02:48:09;;;;;;;13.88;8.73;;;;;;;16.37;70.04;99688.91;5095924;28;20059;-63
2021/06/09 02:50:41;;;;;;;12.52;9.05;;;;;;;16.31;70.16;99678.78;5095907;28;20428;-64
2021/06/09 02:53:22;;;;;;;13.23;8.43;;;;;;;16.30;70.31;99685.66;5095865;28;20058;-64
2021/06/09 02:56:12;;;;;;;13.23;8.75;;;;;;;16.37;70.01;99688.91;5095840;28;20402;-64
2021/06/09 02:58:50;;;;;;;11.75;8.55;;;;;;;16.47;69.88;99677.50;5095092;28;20082;-64
2021/06/09 03:01:29;;;;;;;14.55;8.75;;;;;;;16.50;69.47;99680.00;5095688;28;20410;-63
2021/06/09 03:04:08;;;;;;;12.17;9.00;;;;;;;16.54;69.53;99684.22;5095622;28;20051;-63
2021/06/09 03:06:49;;;;;;;14.75;9.70;;;;;;;16.54;69.25;99676.50;5095349;28;20330;-63
2021/06/09 03:09:32;;;;;;;11.50;8.27;;;;;;;16.56;69.07;99690.19;5095770;28;20056;-63
2021/06/09 03:12:20;;;;;;;14.10;8.82;;;;;;;16.51;69.13;99687.72;5095395;28;20047;-63
2021/06/09 03:18:09;;;;;;;11.40;8.43;;;;;;;16.29;69.38;99680.53;5095601;28;20527;-64
2021/06/09 03:20:50;;;;;;;14.10;9.50;;;;;;;16.26;69.63;99685.75;5091588;28;20547;-64
2021/06/09 03:23:37;;;;;;;11.82;8.90;;;;;;;16.33;69.71;99679.56;5095515;28;20052;-64
2021/06/09 03:26:15;;;;;;;13.90;9.40;;;;;;;16.52;69.60;99678.28;5095114;28;20504;-63
2021/06/09 03:28:59;;;;;;;14.88;9.93;;;;;;;16.47;69.53;99674.94;5095034;28;20056;-64
2021/06/09 03:31:34;;;;;;;14.30;9.65;;;;;;;16.62;69.17;99692.63;5095439;28;20397;-63
2021/06/09 03:34:12;;;;;;;13.85;9.18;;;;;;;16.67;68.75;99688.22;5094703;28;20052;-63
2021/06/09 03:36:45;;;;;;;13.45;9.38;;;;;;;16.74;68.95;99684.59;5094942;28;20072;-63
2021/06/09 03:39:19;;;;;;;12.43;8.65;;;;;;;16.80;68.38;99694.72;5095218;28;20070;-63
2021/06/09 03:41:55;;;;;;;12.68;8.98;;;;;;;16.89;68.33;99699.69;5094884;28;20409;-63
2021/06/09 03:44:37;;;;;;;13.43;8.63;;;;;;;16.98;67.83;99699.44;5094881;28;20064;-64
2021/06/09 03:47:11;;;;;;;13.40;9.30;;;;;;;16.97;67.94;99692.56;5095161;28;20119;-64
2021/06/09 03:49:45;;;;;;;14.98;9.02;;;;;;;17.07;67.61;99699.19;5094703;28;20127;-64
2021/06/09 03:52:18;;;;;;;14.00;9.18;;;;;;;17.14;67.38;99697.28;5094683;28;20074;-63
2021/06/09 03:54:56;;;;;;;12.95;9.07;;;;;;;17.22;67.20;99701.34;5094678;28;20466;-63
2021/06/09 03:57:33;;;;;;;12.85;9.43;;;;;;;17.23;67.06;99700.44;5093604;28;20117;-64
2021/06/09 04:00:07;;;;;;;11.55;8.68;;;;;;;17.25;66.86;99698.66;5094541;28;20055;-64
2021/06/09 04:02:42;;;;;;;11.52;8.63;;;;;;;17.36;66.30;99686.34;5094549;28;20051;-65
2021/06/09 04:05:14;;;;;;;14.10;8.45;;;;;;;17.44;66.41;99691.28;5094413;28;20040;-63
2021/06/09 04:07:47;;;;;;;13.30;8.52;;;;;;;17.52;65.94;99698.81;5094193;28;20055;-64
2021/06/09 04:10:22;;;;;;;11.88;8.60;;;;;;;17.58;65.48;99701.22;5094351;28;20512;-64
2021/06/09 04:12:57;;;;;;;12.43;8.95;;;;;;;17.58;65.56;99696.06;5094686;28;20533;-64
2021/06/09 04:15:32;;;;;;;13.13;8.60;;;;;;;17.61;65.14;99690.81;5094309;28;20060;-64
2021/06/09 04:18:05;;;;;;;14.73;9.02;;;;;;;17.74;65.22;99692.16;5094250;28;20063;-64
2021/06/09 04:20:41;;;;;;;12.80;8.15;;;;;;;17.88;65.09;99700.31;5094161;28;20143;-64
2021/06/09 04:23:13;;;;;;;14.77;9.20;;;;;;;18.02;64.60;99693.00;5094474;28;20075;-65
2021/06/09 04:25:45;;;;;;;12.35;8.45;;;;;;;18.15;64.14;99694.31;5094198;28;20054;-65
2021/06/09 04:28:20;;;;;;;12.20;8.48;;;;;;;18.24;63.72;99701.78;5094130;28;20093;-64
2021/06/09 04:30:52;;;;;;;16.27;8.73;;;;;;;18.35;63.20;99697.13;5094025;28;20097;-64
2021/06/09 04:33:29;;;;;;;11.20;8.30;;;;;;;18.50;63.00;99704.41;5094058;28;20055;-63
2021/06/09 04:36:01;;;;;;;11.43;8.57;;;;;;;18.65;62.74;99706.50;5094293;28;20052;-63
2021/06/09 04:38:33;;;;;;;14.45;8.18;;;;;;;18.84;62.10;99700.69;5093965;28;20511;-63
2021/06/09 04:41:06;;;;;;;14.02;9.30;;;;;;;19.09;61.73;99706.75;5093495;28;20091;-64
2021/06/09 04:43:40;;;;;;;12.35;8.20;;;;;;;19.26;61.17;99704.41;5093917;28;20382;-64
2021/06/09 04:46:18;;;;;;;12.73;8.15;;;;;;;19.48;60.85;99705.38;5093830;28;20079;-65
2021/06/09 04:48:59;;;;;;;12.18;8.27;;;;;;;19.64;60.29;99705.63;5093852;28;20047;-65
2021/06/09 04:51:32;;;;;;;12.30;8.77;;;;;;;19.84;60.05;99698.78;5093752;28;20054;-64
2021/06/09 04:54:04;;;;;;;11.55;8.52;;;;;;;20.07;59.28;99692.72;5093773;28;20058;-64
2021/06/09 04:56:38;;;;;;;18.75;8.38;;;;;;;20.24;58.52;99694.69;5093535;28;20051;-63
2021/06/09 04:59:09;;;;;;;11.00;7.90;;;;;;;20.25;58.15;99699.81;5073569;28;20447;-64
2021/06/09 05:01:47;;;;;;;11.45;7.55;;;;;;;20.41;58.02;99702.63;5073521;28;20063;-64
2021/06/09 05:04:19;;;;;;;10.57;7.43;;;;;;;20.61;57.37;99700.09;5073546;28;20067;-63
2021/06/09 05:06:51;;;;;;;10.95;7.47;;;;;;;20.78;56.95;99695.03;5073656;28;20075;-64
2021/06/09 05:09:27;;;;;;;12.55;7.30;;;;;;;20.83;56.09;99698.25;5073557;28;20540;-65
2021/06/09 05:12:04;;;;;;;11.98;8.20;;;;;;;20.88;55.84;99693.72;5073468;28;20502;-64
2021/06/09 05:14:44;;;;;;;10.45;7.35;;;;;;;20.95;55.79;99692.56;5073690;28;20387;-62
2021/06/09 05:17:21;;;;;;;10.70;7.72;;;;;;;20.99;55.66;99699.31;5073464;28;20071;-64
2021/06/09 05:19:55;;;;;;;12.90;7.72;;;;;;;21.00;55.72;99706.19;5073423;28;20059;-63
2021/06/09 05:22:32;;;;;;;11.57;7.90;;;;;;;21.18;55.72;99691.63;5073375;28;20095;-64
2021/06/09 05:25:05;;;;;;;11.45;7.68;;;;;;;21.38;55.45;99701.13;5073362;28;20131;-63
2021/06/09 05:27:39;;;;;;;11.65;8.18;;;;;;;21.41;55.27;99701.81;5073099;28;20664;-62
2021/06/09 05:30:16;;;;;;;12.77;8.43;;;;;;;21.45;55.17;99705.13;5073338;28;20048;-63
2021/06/09 05:32:50;;;;;;;12.25;7.85;;;;;;;21.49;54.93;99704.06;5072256;28;20048;-63
2021/06/09 05:35:23;;;;;;;10.82;7.40;;;;;;;21.58;54.80;99698.47;5073247;28;20056;-62
2021/06/09 05:37:56;;;;;;;10.02;7.15;;;;;;;21.69;54.51;99701.44;5072965;28;20049;-63
2021/06/09 05:40:27;;;;;;;11.02;7.32;;;;;;;21.82;54.24;99698.19;5073152;28;20135;-63
2021/06/09 05:43:00;;;;;;;9.38;6.93;;;;;;;21.99;54.02;99700.03;5073196;28;20053;-64
2021/06/09 05:45:35;;;;;;;11.77;7.30;;;;;;;22.14;53.85;99696.72;5073205;28;20071;-64
2021/06/09 05:48:08;;;;;;;10.70;7.13;;;;;;;22.33;53.56;99700.13;5072899;28;20056;-62
2021/06/09 05:50:40;;;;;;;12.20;7.35;;;;;;;22.47;53.06;99691.66;5073124;28;20102;-62
2021/06/09 05:53:10;;;;;;;9.40;5.97;;;;;;;22.58;53.02;99695.41;5075231;28;20072;-64
2021/06/09 05:55:41;;;;;;;;;;;;;;;22.73;52.45;99692.97;5077093;28;20052;-64
2021/06/09 05:58:16;;;;;;;14.32;6.57;;;;;;;22.87;52.37;99691.38;5089198;28;19919;-64
2021/06/09 06:01:08;;;;;;;8.73;5.93;;;;;;;23.04;51.64;99698.31;5034389;28;20057;-64
2021/06/09 06:03:42;;;;;;;8.80;6.38;;;;;;;23.10;51.42;99698.88;5034738;28;20049;-64
2021/06/09 06:06:15;;;;;;;10.52;6.63;;;;;;;23.25;51.22;99702.44;5034583;28;20059;-64
2021/06/09 06:08:47;;;;;;;12.07;6.45;;;;;;;23.31;51.34;99684.72;5034154;28;20060;-64
2021/06/09 06:11:20;;;;;;;11.15;6.93;;;;;;;23.51;51.20;99699.34;5034439;28;20099;-64
2021/06/09 06:13:52;;;;;;;9.27;6.82;;;;;;;23.58;50.98;99700.69;5034572;28;20049;-64
2021/06/09 06:16:57;;;;;;;10.20;7.03;;;;;;;23.65;50.87;99694.22;5034506;28;20408;-63
2021/06/09 06:19:36;;;;;;;9.57;6.80;;;;;;;23.65;50.91;99694.22;5064532;28;20052;-62
2021/06/09 06:22:09;;;;;;;9.88;6.70;;;;;;;23.67;50.97;99699.34;5096377;28;20051;-64
2021/06/09 06:24:42;;;;;;;12.77;6.88;;;;;;;23.81;51.12;99697.69;5096389;28;20055;-65
2021/06/09 06:27:16;;;;;;;9.93;6.78;;;;;;;23.92;51.11;99689.28;5096181;28;20044;-63
2021/06/09 06:29:46;;;;;;;13.68;6.65;;;;;;;24.17;50.84;99683.56;5096212;28;20453;-63
2021/06/09 06:32:22;;;;;;;8.57;6.25;;;;;;;24.38;50.28;99682.34;5096187;28;20048;-62
2021/06/09 06:34:59;;;;;;;9.57;5.70;;;;;;;24.55;49.78;99687.44;5096402;28;20040;-64
2021/06/09 06:37:33;;;;;;;12.15;6.20;;;;;;;24.61;49.43;99679.25;5095948;28;20079;-64
2021/06/09 06:40:06;;;;;;;7.78;4.55;;;;;;;24.71;49.31;99688.25;5096059;28;20515;-63
2021/06/09 06:42:35;;;;;;;10.27;5.43;;;;;;;24.82;49.08;99683.25;5096220;28;20060;-63
2021/06/09 06:45:10;;;;;;;11.65;5.20;;;;;;;24.89;49.05;99679.34;5095989;28;20044;-63
2021/06/09 06:47:42;;;;;;;7.50;4.68;;;;;;;25.07;48.36;99682.66;5095730;28;20048;-62
2021/06/09 06:50:14;;;;;;;7.40;4.97;;;;;;;25.23;48.14;99684.25;5095967;28;20052;-62
2021/06/09 06:52:47;;;;;;;7.35;5.35;;;;;;;25.36;47.98;99680.88;5095769;28;20062;-64
2021/06/09 06:55:21;;;;;;;6.68;4.60;;;;;;;25.50;47.51;99680.91;5095830;28;20048;-63
2021/06/09 06:57:56;;;;;;;10.45;5.00;;;;;;;25.68;47.40;99684.97;5095316;28;20051;-65
2021/06/09 07:00:28;;;;;;;5.95;4.38;;;;;;;25.83;46.52;99678.78;5095521;28;20059;-63
2021/06/09 07:03:02;;;;;;;5.95;4.03;;;;;;;25.83;45.63;99674.41;5095416;28;20378;-63
2021/06/09 07:05:33;;;;;;;8.45;4.53;;;;;;;25.98;45.94;99672.59;5095646;28;20080;-62
2021/06/09 07:08:06;;;;;;;7.97;4.80;;;;;;;25.99;45.92;99674.25;5095349;28;20040;-62
2021/06/09 07:10:40;;;;;;;9.88;4.68;;;;;;;25.92;45.49;99667.75;5095482;28;20383;-64
2021/06/09 07:13:09;;;;;;;6.68;4.32;;;;;;;26.08;45.48;99684.16;5095402;28;20489;-62
2021/06/09 07:15:41;;;;;;;;;;;;;;;26.09;45.24;99680.59;5095766;28;20394;-64
2021/06/09 07:18:14;;;;;;;7.70;4.20;;;;;;;26.17;45.02;99678.34;5095347;28;19920;-64
2021/06/09 07:20:44;;;;;;;5.63;3.70;;;;;;;26.29;43.47;99681.97;5095391;28;20052;-64
2021/06/09 07:23:18;;;;;;;4.93;3.58;;;;;;;26.37;43.21;99675.28;5095076;28;20087;-65
2021/06/09 07:25:47;;;;;;;6.40;3.90;;;;;;;26.52;42.64;99679.50;5095249;28;20481;-61
2021/06/09 07:28:17;;;;;;;5.78;3.95;;;;;;;26.53;43.08;99670.72;5077090;28;20048;-61
2021/06/09 07:30:47;;;;;;;6.00;3.58;;;;;;;26.69;42.55;99674.91;5094845;28;20447;-62
2021/06/09 07:33:16;;;;;;;6.07;4.00;;;;;;;26.74;41.99;99672.84;5094420;28;20494;-63
2021/06/09 07:35:49;;;;;;;6.93;3.87;;;;;;;26.77;41.58;99677.91;5094539;28;20067;-63
2021/06/09 07:38:26;;;;;;;6.78;4.18;;;;;;;26.84;41.54;99679.16;5094753;28;20760;-61
2021/06/09 07:41:01;;;;;;;9.32;4.82;;;;;;;27.01;41.92;99676.25;5094815;28;20059;-62
2021/06/09 07:43:38;;;;;;;7.03;4.00;;;;;;;27.20;41.53;99681.91;5095050;28;20404;-63
2021/06/09 07:46:10;;;;;;;5.75;3.70;;;;;;;27.27;41.13;99680.53;5094567;28;20099;-64
2021/06/09 07:48:46;;;;;;;9.68;4.13;;;;;;;27.36;40.39;99677.28;5094471;28;20048;-61
2021/06/09 07:51:21;;;;;;;8.13;4.05;;;;;;;27.43;41.00;99678.56;5094749;28;20477;-63
2021/06/09 07:53:53;;;;;;;5.57;4.10;;;;;;;27.49;40.46;99683.38;5094821;28;20050;-62
2021/06/09 07:56:23;;;;;;;8.65;4.40;;;;;;;27.54;40.17;99669.94;5094384;28;20056;-62
2021/06/09 07:58:53;;;;;;;5.75;4.07;;;;;;;27.59;40.47;99673.94;5094163;28;20401;-61
2021/06/09 08:01:21;;;;;;;7.65;4.82;;;;;;;27.60;40.48;99683.47;5094292;28;20095;-61
2021/06/09 08:03:51;;;;;;;7.38;4.78;;;;;;;27.37;38.47;99663.22;5094210;28;20036;-62
2021/06/09 08:06:22;;;;;;;8.93;4.50;;;;;;;27.42;37.77;99674.28;5094350;28;20048;-61
2021/06/09 08:08:51;;;;;;;8.52;4.30;;;;;;;27.47;37.28;99681.81;5094167;28;20066;-62
2021/06/09 08:11:29;;;;;;;7.80;4.93;;;;;;;27.66;37.20;99690.91;5094165;28;20118;-62
2021/06/09 08:13:58;;;;;;;6.50;4.38;;;;;;;27.64;36.87;99666.53;5094544;28;20052;-62
2021/06/09 08:16:28;;;;;;;10.40;4.80;;;;;;;27.72;36.42;99679.97;5093366;28;20051;-62
2021/06/09 08:18:57;;;;;;;7.30;4.50;;;;;;;27.74;36.34;99688.56;5094001;28;20438;-62
2021/06/09 08:21:27;;;;;;;8.60;4.30;;;;;;;27.78;36.07;99678.69;5093915;28;20509;-62
2021/06/09 08:23:56;;;;;;;11.98;4.93;;;;;;;27.80;36.15;99688.13;5094120;28;20052;-62
2021/06/09 08:26:26;;;;;;;6.90;4.60;;;;;;;27.82;36.21;99675.75;5093832;28;20051;-61
2021/06/09 08:28:56;;;;;;;7.28;4.13;;;;;;;27.80;36.42;99677.66;5093559;28;20048;-61
2021/06/09 08:31:27;;;;;;;6.30;4.65;;;;;;;27.89;36.16;99679.59;5075738;28;20044;-63
2021/06/09 08:33:57;;;;;;;9.77;4.47;;;;;;;27.99;35.84;99686.81;5094017;28;20459;-62
2021/06/09 08:36:33;;;;;;;6.85;4.40;;;;;;;27.96;36.03;99680.00;5093806;28;20051;-62
2021/06/09 08:39:04;;;;;;;6.47;4.20;;;;;;;27.94;35.71;99668.78;5094241;28;20093;-63
2021/06/09 08:41:39;;;;;;;6.07;3.60;;;;;;;28.24;36.40;99676.25;5093729;28;20535;-61
2021/06/09 08:44:09;;;;;;;5.93;4.50;;;;;;;28.27;35.31;99673.38;5093814;28;20043;-63
2021/06/09 08:46:39;;;;;;;7.65;4.50;;;;;;;28.31;35.57;99680.09;5093780;28;20073;-63
2021/06/09 08:49:09;;;;;;;7.07;4.30;;;;;;;28.43;35.38;99682.63;5093355;28;20079;-62
2021/06/09 08:51:40;;;;;;;5.47;3.95;;;;;;;28.52;34.71;99686.38;5093815;28;20044;-62
2021/06/09 08:54:09;;;;;;;8.43;4.10;;;;;;;28.61;34.82;99683.09;5093504;28;20098;-63
2021/06/09 08:56:38;;;;;;;11.38;4.50;;;;;;;28.61;34.96;99664.72;5093729;28;20101;-63
2021/06/09 08:59:07;;;;;;;7.35;4.40;;;;;;;28.61;34.76;99664.72;5073271;28;20045;-64
2021/06/09 09:01:36;;;;;;;8.73;3.75;;;;;;;28.60;34.23;99684.06;5073222;28;20099;-63
2021/06/09 09:04:05;;;;;;;5.28;3.90;;;;;;;28.70;34.16;99685.03;5072923;28;20065;-63
2021/06/09 09:06:34;;;;;;;7.83;3.80;;;;;;;28.73;34.24;99674.28;5073120;28;20094;-62
2021/06/09 09:09:07;;;;;;;8.50;4.03;;;;;;;28.84;33.77;99682.19;5073571;28;20043;-62
2021/06/09 09:11:37;;;;;;;7.80;4.30;;;;;;;28.96;33.76;99686.53;5071693;28;20071;-64
2021/06/09 09:14:05;;;;;;;6.57;4.18;;;;;;;28.93;33.81;99686.78;5072758;28;20390;-61
2021/06/09 09:16:35;;;;;;;6.20;4.18;;;;;;;29.06;33.31;99689.28;5072269;28;20047;-63
2021/06/09 09:19:05;;;;;;;7.32;4.03;;;;;;;29.22;33.77;99686.34;5073143;28;20049;-62
2021/06/09 09:21:39;;;;;;;8.68;3.67;;;;;;;29.24;33.44;99689.69;5073404;28;20061;-62
2021/06/09 09:24:13;;;;;;;5.10;3.78;;;;;;;29.25;33.49;99676.41;5073188;28;20454;-62
2021/06/09 09:26:49;;;;;;;7.05;3.80;;;;;;;29.25;33.09;99688.75;5074568;28;20059;-63
2021/06/09 09:29:20;;;;;;;5.72;4.22;;;;;;;29.30;33.03;99683.97;5076791;28;20050;-61
2021/06/09 09:31:54;;;;;;;5.00;3.80;;;;;;;29.31;32.75;99683.00;5076972;28;20127;-63
2021/06/09 09:34:40;;;;;;;5.53;3.88;;;;;;;29.36;32.89;99679.06;5076883;28;20049;-64
2021/06/09 09:37:15;;;;;;;11.10;4.47;;;;;;;29.60;32.78;99671.03;5076648;28;20072;-64
2021/06/09 09:39:48;;;;;;;8.43;4.13;;;;;;;29.87;33.14;99674.16;5076958;28;20057;-64
2021/06/09 09:42:25;;;;;;;6.72;3.90;;;;;;;30.03;32.64;99682.47;5077032;28;20390;-62
2021/06/09 09:44:54;;;;;;;5.65;3.85;;;;;;;29.88;32.25;99678.44;5076652;28;20102;-62
2021/06/09 09:47:24;;;;;;;5.13;3.72;;;;;;;29.88;32.21;99669.69;5075452;28;20044;-61
2021/06/09 09:49:53;;;;;;;12.38;4.45;;;;;;;29.62;31.81;99675.22;5076200;28;20487;-61
2021/06/09 09:52:22;;;;;;;5.28;4.00;;;;;;;29.49;32.05;99673.69;5076700;28;20087;-63
2021/06/09 09:55:11;;;;;;;6.38;3.60;;;;;;;29.77;32.34;99667.94;5075772;28;20140;-63
2021/06/09 09:57:40;;;;;;;5.97;3.72;;;;;;;29.86;32.66;99669.84;5084681;28;20132;-63
2021/06/09 10:00:10;;;;;;;7.15;3.45;;;;;;;29.94;32.19;99682.38;5096254;28;20105;-63
2021/06/09 10:02:44;;;;;;;5.30;3.25;;;;;;;29.95;31.67;99669.09;5096767;28;20064;-63
2021/06/09 10:05:14;;;;;;;5.40;3.83;;;;;;;30.01;32.26;99671.25;5096785;28;20052;-65
2021/06/09 10:08:05;;;;;;;5.13;3.40;;;;;;;30.28;32.14;99676.06;5096656;28;20497;-63
2021/06/09 10:10:37;;;;;;;8.65;3.55;;;;;;;30.26;32.03;99665.63;5096701;28;20051;-62
2021/06/09 10:13:07;;;;;;;6.10;3.58;;;;;;;30.39;32.61;99668.97;5096584;28;20048;-61
2021/06/09 10:15:40;;;;;;;7.90;3.65;;;;;;;30.43;31.96;99673.03;5096498;28;20055;-61
2021/06/09 10:18:19;;;;;;;7.00;3.58;;;;;;;30.32;32.29;99680.94;5096388;28;20052;-62
2021/06/09 10:20:52;;;;;;;;;;;;;;;30.21;31.71;99680.16;5096900;28;20130;-61
2021/06/09 10:23:35;;;;;;;4.32;3.13;;;;;;;30.00;31.48;99672.19;5095959;28;20510;-63
2021/06/09 10:26:08;;;;;;;5.13;3.63;;;;;;;30.20;31.15;99676.69;5096368;28;20067;-62
2021/06/09 10:28:58;;;;;;;5.88;3.67;;;;;;;30.13;30.25;99670.25;5096110;28;20486;-62
2021/06/09 10:31:34;;;;;;;7.57;3.65;;;;;;;30.14;30.25;99664.00;5095849;28;20052;-61
2021/06/09 10:34:05;;;;;;;5.13;3.65;;;;;;;30.22;30.44;99674.75;5096220;28;20044;-62
2021/06/09 10:36:46;;;;;;;4.40;3.22;;;;;;;30.19;30.19;99659.19;5096159;28;20497;-62
2021/06/09 10:39:16;;;;;;;5.57;3.55;;;;;;;30.17;30.10;99669.03;5077533;28;20044;-61
2021/06/09 10:41:49;;;;;;;7.28;3.70;;;;;;;30.35;30.46;99659.63;5095792;28;20572;-62
2021/06/09 10:44:20;;;;;;;6.72;3.95;;;;;;;30.50;31.18;99658.38;5095629;28;20052;-61
2021/06/09 10:46:53;;;;;;;4.40;3.33;;;;;;;30.46;30.29;99651.69;5095703;28;20459;-62
2021/06/09 10:49:26;;;;;;;5.75;3.70;;;;;;;30.61;30.23;99659.28;5095627;28;20048;-63
2021/06/09 10:51:59;;;;;;;5.72;3.97;;;;;;;30.71;30.49;99654.91;5095880;28;20079;-63
2021/06/09 10:54:29;;;;;;;4.97;3.42;;;;;;;30.82;30.43;99654.84;5095779;28;20075;-62
2021/06/09 10:57:00;;;;;;;7.18;3.40;;;;;;;30.86;29.97;99648.31;5095306;28;20547;-61
2021/06/09 10:59:31;;;;;;;6.00;3.58;;;;;;;30.80;29.71;99662.03;5095599;28;20116;-62
2021/06/09 11:02:05;;;;;;;4.75;3.00;;;;;;;30.86;29.52;99653.59;5095625;28;20576;-64
2021/06/09 11:04:38;;;;;;;6.68;3.63;;;;;;;30.97;29.38;99661.50;5095645;28;20463;-65
2021/06/09 11:07:30;;;;;;;5.28;3.45;;;;;;;31.00;28.75;99645.41;5095407;28;20199;-65
2021/06/09 11:10:00;;;;;;;4.97;3.20;;;;;;;31.20;30.02;99647.16;5095004;28;20063;-65
2021/06/09 11:12:37;;;;;;;4.90;3.20;;;;;;;31.53;30.79;99646.88;5095468;28;20087;-65
2021/06/09 11:15:13;;;;;;;6.07;3.38;;;;;;;31.63;29.43;99645.13;5095036;28;20104;-64
2021/06/09 11:17:44;;;;;;;6.07;2.85;;;;;;;31.61;29.88;99647.06;5095636;28;20048;-64
2021/06/09 11:20:19;;;;;;;6.25;3.13;;;;;;;31.62;28.38;99643.47;5095218;28;20052;-64
2021/06/09 11:23:02;;;;;;;5.65;2.95;;;;;;;31.78;28.79;99638.47;5095426;28;20481;-65
2021/06/09 11:25:37;;;;;;;5.20;2.92;;;;;;;31.79;27.68;99634.03;5095120;28;20079;-62
2021/06/09 11:28:11;;;;;;;4.93;2.55;;;;;;;31.78;28.65;99633.19;5095134;28;20135;-63
2021/06/09 11:30:43;;;;;;;5.03;2.80;;;;;;;31.68;27.31;99637.63;5094945;28;20485;-65
2021/06/09 11:33:32;;;;;;;6.53;2.90;;;;;;;31.67;27.03;99629.84;5095262;28;20123;-65
2021/06/09 11:36:04;;;;;;;4.97;2.30;;;;;;;31.70;27.03;99635.69;5094626;28;20089;-66
2021/06/09 11:38:37;;;;;;;6.22;2.75;;;;;;;31.89;26.63;99634.88;5094613;28;20046;-65
2021/06/09 11:41:12;;;;;;;8.93;3.17;;;;;;;31.85;25.65;99637.91;5094947;28;20055;-63
2021/06/09 11:43:44;;;;;;;7.85;2.60;;;;;;;31.78;25.88;99625.28;5094748;28;20142;-63
2021/06/09 11:46:22;;;;;;;6.30;2.92;;;;;;;31.76;26.53;99624.59;5094516;28;20443;-64
2021/06/09 11:48:55;;;;;;;;;;;;;;;32.02;27.13;99618.78;5094922;28;20485;-64
2021/06/09 11:51:31;;;;;;;5.93;2.70;;;;;;;32.11;26.13;99623.25;5093940;28;19920;-63
2021/06/09 11:54:04;;;;;;;4.93;2.90;;;;;;;32.25;27.65;99620.22;5094405;28;20051;-64
2021/06/09 11:56:43;;;;;;;4.05;2.97;;;;;;;32.19;26.72;99615.47;5094377;28;20090;-62
2021/06/09 11:59:26;;;;;;;4.72;3.00;;;;;;;31.84;26.58;99597.50;5094646;28;20520;-63
2021/06/09 12:02:01;;;;;;;4.13;2.90;;;;;;;31.65;26.24;99600.94;5094263;28;20055;-63
2021/06/09 12:04:31;;;;;;;4.32;3.25;;;;;;;31.49;26.60;99608.53;5093787;28;20060;-63
2021/06/09 12:07:02;;;;;;;5.47;3.00;;;;;;;31.60;26.43;99605.78;5091833;28;20093;-65